Time;durP1;ratioP1;P1;durP2;ratioP2;P2;SDS_P1;SDS_P2;PMS_P1;PMS_P2;Temp;Humidity;BMP_temperature;BMP_pressure;BME280_temperature;BME280_humidity;BME280_pressure;Samples;Min_cycle;Max_cycle;Signal;HPM_P1;HPM_P2
2021/05/09 00:01:56;;;;;;;25.80;15.83;;;;;;;8.23;51.95;100467.84;2248810;78;31796;-60
2021/05/09 00:05:11;;;;;;;22.77;15.20;;;;;;;8.23;51.80;100460.72;2342431;76;27743;-59
2021/05/09 00:08:24;;;;;;;30.13;17.43;;;;;;;8.24;51.94;100457.57;2343165;76;28481;-59
2021/05/09 00:11:37;;;;;;;28.73;17.20;;;;;;;8.25;51.99;100453.53;2343284;76;28483;-59
2021/05/09 00:14:51;;;;;;;24.57;16.07;;;;;;;8.27;52.15;100449.45;2336666;76;29492;-60
2021/05/09 00:18:06;;;;;;;23.73;15.10;;;;;;;8.25;52.18;100445.97;2300681;76;31824;-59
2021/05/09 00:21:18;;;;;;;26.33;15.87;;;;;;;8.27;52.16;100444.12;2343238;76;29513;-60
2021/05/09 00:24:31;;;;;;;29.63;17.13;;;;;;;8.24;52.06;100449.12;2342813;76;32015;-60
2021/05/09 00:27:44;;;;;;;25.43;15.43;;;;;;;8.24;52.17;100448.23;2342783;76;30456;-60
2021/05/09 00:30:57;;;;;;;25.37;15.07;;;;;;;8.21;52.28;100447.89;2325753;76;28395;-62
2021/05/09 00:34:10;;;;;;;27.93;16.30;;;;;;;8.18;52.18;100442.66;2343197;76;27932;-60
2021/05/09 00:37:41;;;;;;;28.23;17.80;;;;;;;8.17;52.32;100443.14;2293748;77;31398;-59
2021/05/09 00:41:03;;;;;;;27.27;16.33;;;;;;;8.15;52.57;100442.77;2342836;76;29374;-59
2021/05/09 00:44:23;;;;;;;26.77;16.27;;;;;;;8.12;52.61;100437.09;2312225;76;29403;-61
2021/05/09 00:47:52;;;;;;;30.77;17.50;;;;;;;8.10;52.72;100434.95;2342399;76;29567;-60
2021/05/09 00:51:12;;;;;;;27.30;17.53;;;;;;;8.05;52.79;100425.78;2343174;76;31338;-60
2021/05/09 00:54:31;;;;;;;29.10;16.73;;;;;;;8.02;52.79;100427.23;2247869;78;27695;-60
2021/05/09 00:57:57;;;;;;;26.47;16.77;;;;;;;7.97;53.17;100431.00;2341860;76;29483;-60
2021/05/09 01:01:45;;;;;;;25.87;16.73;;;;;;;7.90;52.98;100428.55;2220062;79;28524;-60
2021/05/09 01:05:00;;;;;;;29.23;17.43;;;;;;;7.85;53.27;100428.31;2294586;77;31335;-59
2021/05/09 01:08:13;;;;;;;29.50;17.57;;;;;;;7.80;53.37;100429.81;2342297;76;27655;-60
2021/05/09 01:11:26;;;;;;;25.13;16.00;;;;;;;7.75;53.48;100424.66;2342753;75;28556;-60
2021/05/09 01:14:41;;;;;;;27.23;16.43;;;;;;;7.70;53.67;100424.38;2342233;76;28596;-60
2021/05/09 01:17:54;;;;;;;26.50;17.17;;;;;;;7.61;53.66;100417.61;2333270;74;28491;-61
2021/05/09 01:21:09;;;;;;;28.87;16.97;;;;;;;7.56;53.77;100424.42;2342427;76;30437;-63
2021/05/09 01:24:21;;;;;;;29.57;17.17;;;;;;;7.48;53.86;100418.50;2342199;76;30505;-60
2021/05/09 01:27:35;;;;;;;23.57;15.07;;;;;;;7.42;53.75;100408.04;2342315;76;27661;-60
2021/05/09 01:30:48;;;;;;;22.67;15.70;;;;;;;7.36;54.20;100417.60;2341800;76;28519;-60
2021/05/09 01:34:01;;;;;;;25.53;16.73;;;;;;;7.28;54.08;100417.39;2343180;76;27668;-59
2021/05/09 01:37:15;;;;;;;27.10;17.27;;;;;;;7.23;54.11;100415.33;2342292;76;28919;-60
2021/05/09 01:40:29;;;;;;;25.33;15.67;;;;;;;7.18;54.17;100418.64;2343137;76;30462;-60
2021/05/09 01:43:42;;;;;;;23.70;15.57;;;;;;;7.13;54.22;100417.91;2343176;76;28227;-59
2021/05/09 01:46:55;;;;;;;28.50;17.33;;;;;;;7.09;54.29;100409.16;2315237;76;27669;-59
2021/05/09 01:50:17;;;;;;;25.83;16.13;;;;;;;7.06;54.38;100419.91;2343150;76;27650;-60
2021/05/09 01:53:30;;;;;;;25.10;18.63;;;;;;;6.99;54.65;100414.36;2321644;76;36780;-61
2021/05/09 01:56:43;;;;;;;28.23;16.93;;;;;;;7.06;54.39;100415.03;2342330;76;27741;-59
2021/05/09 01:59:58;;;;;;;26.47;16.47;;;;;;;7.04;54.64;100415.09;2319987;76;27708;-60
2021/05/09 02:03:11;;;;;;;27.57;16.13;;;;;;;6.98;54.53;100413.50;2328816;76;28987;-60
2021/05/09 02:06:25;;;;;;;25.73;15.93;;;;;;;6.94;54.84;100403.01;2341010;76;27682;-59
2021/05/09 02:09:39;;;;;;;25.40;14.50;;;;;;;6.86;54.89;100397.94;2342723;76;28125;-59
2021/05/09 02:12:51;;;;;;;29.37;17.03;;;;;;;6.79;55.58;100397.23;2307579;76;28511;-59
2021/05/09 02:16:05;;;;;;;25.90;15.60;;;;;;;6.73;55.24;100396.56;2341451;76;28529;-60
2021/05/09 02:19:18;;;;;;;24.83;16.03;;;;;;;6.67;55.31;100393.64;2342025;76;29499;-60
2021/05/09 02:22:31;;;;;;;26.67;16.00;;;;;;;6.62;55.42;100387.62;2320109;76;27647;-60
2021/05/09 02:25:44;;;;;;;22.97;14.43;;;;;;;6.59;55.68;100382.39;2343124;76;27754;-60
2021/05/09 02:28:57;;;;;;;26.90;15.07;;;;;;;6.57;55.94;100388.22;2342307;76;27591;-62
2021/05/09 02:32:11;;;;;;;27.07;15.80;;;;;;;6.51;55.96;100394.61;2343156;76;27594;-59
2021/05/09 02:35:30;;;;;;;25.90;16.37;;;;;;;6.48;56.05;100390.70;2342776;76;27601;-60
2021/05/09 02:38:44;;;;;;;28.00;16.20;;;;;;;6.45;56.04;100386.80;2342565;76;27686;-59
2021/05/09 02:41:57;;;;;;;30.93;18.03;;;;;;;6.41;56.42;100387.81;2309600;76;27521;-60
2021/05/09 02:45:11;;;;;;;31.70;17.50;;;;;;;6.35;56.27;100387.55;2343168;76;27710;-59
2021/05/09 02:48:25;;;;;;;31.50;17.37;;;;;;;6.30;56.44;100384.14;2340219;76;27734;-60
2021/05/09 02:51:39;;;;;;;29.43;17.23;;;;;;;6.24;56.43;100386.53;2340631;76;27847;-60
2021/05/09 02:54:53;;;;;;;28.03;18.20;;;;;;;6.20;56.57;100396.41;2342322;76;27682;-61
2021/05/09 02:58:05;;;;;;;31.63;18.77;;;;;;;6.17;56.70;100395.16;2329396;76;27755;-59
2021/05/09 03:01:19;;;;;;;29.17;18.27;;;;;;;6.12;56.78;100398.88;2337556;76;27770;-61
2021/05/09 03:04:36;;;;;;;32.77;19.10;;;;;;;6.08;56.93;100394.13;2251668;77;27238;-61
2021/05/09 03:07:49;;;;;;;30.67;17.80;;;;;;;6.03;57.11;100382.30;2342261;76;27615;-60
2021/05/09 03:11:03;;;;;;;30.73;18.33;;;;;;;5.98;57.28;100382.84;2334191;74;27742;-60
2021/05/09 03:14:17;;;;;;;27.03;18.63;;;;;;;5.93;57.44;100380.77;2340645;76;27723;-61
2021/05/09 03:17:31;;;;;;;36.07;20.43;;;;;;;5.91;57.79;100392.80;2252331;77;27986;-59
2021/05/09 03:20:45;;;;;;;34.10;21.23;;;;;;;5.87;57.63;100392.45;2342299;76;27658;-60
2021/05/09 03:23:58;;;;;;;37.47;20.03;;;;;;;5.86;57.75;100388.53;2342740;76;27907;-61
2021/05/09 03:27:16;;;;;;;37.70;21.10;;;;;;;5.83;57.84;100393.45;2302529;76;27673;-60
2021/05/09 03:30:28;;;;;;;32.37;19.77;;;;;;;5.79;58.12;100397.14;2342016;76;28185;-61
2021/05/09 03:33:42;;;;;;;32.43;20.63;;;;;;;5.75;58.17;100384.38;2252101;77;27688;-60
2021/05/09 03:36:56;;;;;;;37.37;20.83;;;;;;;5.76;58.38;100387.92;2342435;76;27738;-60
2021/05/09 03:40:10;;;;;;;33.17;19.97;;;;;;;5.75;58.21;100385.70;2317321;76;27743;-60
2021/05/09 03:43:23;;;;;;;33.07;20.43;;;;;;;5.74;58.44;100383.95;2342284;76;27707;-60
2021/05/09 03:46:36;;;;;;;39.17;21.60;;;;;;;5.77;58.48;100389.66;2342880;76;28004;-61
2021/05/09 03:49:50;;;;;;;37.90;20.67;;;;;;;5.79;58.58;100385.17;2342080;76;27690;-61
2021/05/09 03:53:02;;;;;;;36.07;20.07;;;;;;;5.82;58.81;100387.72;2311872;76;27799;-61
2021/05/09 03:56:16;;;;;;;34.60;20.37;;;;;;;5.84;58.84;100382.38;2325931;76;28223;-59
2021/05/09 03:59:29;;;;;;;32.57;19.03;;;;;;;5.86;58.90;100367.27;2341703;76;28167;-60
2021/05/09 04:02:46;;;;;;;35.93;22.00;;;;;;;5.88;58.98;100372.94;2250727;77;27735;-60
2021/05/09 04:06:00;;;;;;;31.37;19.17;;;;;;;5.89;59.04;100371.13;2251167;77;27691;-62
2021/05/09 04:09:14;;;;;;;33.97;19.77;;;;;;;5.95;59.22;100370.97;2324863;76;27651;-59
2021/05/09 04:12:26;;;;;;;37.00;19.33;;;;;;;6.01;59.28;100359.30;2343160;76;27821;-61
2021/05/09 04:15:40;;;;;;;35.93;19.93;;;;;;;6.07;59.13;100359.13;2342762;76;27703;-59
2021/05/09 04:18:54;;;;;;;36.27;21.57;;;;;;;6.16;59.15;100354.84;2334224;76;27726;-61
2021/05/09 04:22:07;;;;;;;34.53;20.80;;;;;;;6.28;59.13;100348.77;2343223;76;27714;-59
2021/05/09 04:25:21;;;;;;;34.37;20.20;;;;;;;6.38;59.26;100340.41;2297335;77;27705;-60
2021/05/09 04:28:34;;;;;;;35.37;19.27;;;;;;;6.47;59.16;100345.91;2337102;76;27599;-60
2021/05/09 04:31:48;;;;;;;29.07;19.67;;;;;;;6.57;59.05;100345.16;2343215;76;27691;-61
2021/05/09 04:35:00;;;;;;;33.23;18.23;;;;;;;6.70;59.15;100348.30;2342828;76;27610;-61
2021/05/09 04:38:14;;;;;;;28.23;17.07;;;;;;;6.83;58.91;100346.96;2284346;76;28572;-59
2021/05/09 04:41:26;;;;;;;26.90;17.67;;;;;;;7.03;58.96;100350.75;2297451;77;27948;-59
2021/05/09 04:44:42;;;;;;;29.97;17.57;;;;;;;7.29;58.76;100352.95;2343197;76;27597;-60
2021/05/09 04:47:55;;;;;;;31.20;16.93;;;;;;;7.82;58.78;100351.95;2342295;76;27640;-60
2021/05/09 04:51:07;;;;;;;32.07;17.33;;;;;;;8.88;58.40;100356.73;2300436;76;32445;-61
2021/05/09 04:54:21;;;;;;;27.37;16.57;;;;;;;10.15;57.61;100347.61;2316473;76;31026;-60
2021/05/09 04:57:35;;;;;;;24.47;15.03;;;;;;;11.45;55.60;100343.00;2336309;76;32311;-60
2021/05/09 05:00:55;;;;;;;24.55;13.72;;;;;;;12.44;54.56;100337.66;2251483;77;32716;-62
2021/05/09 05:04:28;;;;;;;27.02;14.45;;;;;;;13.18;52.83;100336.05;2342593;76;32836;-59
2021/05/09 05:07:40;;;;;;;24.15;14.38;;;;;;;13.97;51.97;100334.41;2300382;76;32300;-61
2021/05/09 05:10:53;;;;;;;21.57;15.10;;;;;;;14.58;50.84;100331.39;2304548;76;32685;-62
2021/05/09 05:14:07;;;;;;;22.75;14.18;;;;;;;15.07;49.01;100329.10;2342289;76;32734;-61
2021/05/09 05:17:20;;;;;;;19.98;14.15;;;;;;;15.43;48.33;100324.38;2208376;80;32265;-62
2021/05/09 05:20:33;;;;;;;22.60;14.18;;;;;;;16.01;48.28;100327.12;2309694;76;32176;-62
2021/05/09 05:23:46;;;;;;;19.80;13.43;;;;;;;16.50;47.79;100322.17;2324917;76;32308;-63
2021/05/09 05:27:00;;;;;;;17.75;13.00;;;;;;;17.03;46.50;100322.34;2251973;77;32229;-63
2021/05/09 05:30:14;;;;;;;19.30;12.50;;;;;;;17.38;45.40;100320.58;2322172;76;32361;-63
2021/05/09 05:33:37;;;;;;;16.00;11.65;;;;;;;17.61;43.50;100315.58;2252333;77;32870;-63
2021/05/09 05:36:49;;;;;;;21.33;13.03;;;;;;;17.70;42.96;100311.75;2301980;77;32362;-64
2021/05/09 05:40:04;;;;;;;18.67;11.85;;;;;;;17.98;42.90;100311.80;2244993;78;32332;-61
2021/05/09 05:43:17;;;;;;;17.23;11.85;;;;;;;18.33;42.85;100318.03;2343114;76;27696;-63
2021/05/09 05:46:30;;;;;;;15.38;10.95;;;;;;;18.87;43.04;100313.54;2244680;77;27679;-74
2021/05/09 05:49:42;;;;;;;17.32;11.60;;;;;;;19.35;41.87;100305.44;2337719;76;27694;-59
2021/05/09 05:52:56;;;;;;;15.28;10.53;;;;;;;19.79;41.29;100313.41;2251298;77;27676;-61
2021/05/09 05:56:08;;;;;;;18.87;9.85;;;;;;;20.11;40.42;100304.73;2342832;76;27603;-61
2021/05/09 05:59:22;;;;;;;12.25;9.23;;;;;;;20.38;39.19;100314.14;2337030;76;27651;-59
2021/05/09 06:02:35;;;;;;;14.90;10.48;;;;;;;20.52;38.82;100304.21;2343211;76;27570;-61
2021/05/09 06:05:47;;;;;;;13.72;8.95;;;;;;;20.74;38.28;100311.25;2343109;76;27655;-60
2021/05/09 06:09:02;;;;;;;16.87;9.75;;;;;;;20.94;37.56;100312.66;2240668;78;27683;-60
2021/05/09 06:12:15;;;;;;;12.68;8.68;;;;;;;21.32;38.03;100308.67;2341835;76;27687;-60
2021/05/09 06:15:33;;;;;;;11.22;7.83;;;;;;;21.68;37.54;100311.63;2212295;77;28095;-59
2021/05/09 06:18:46;;;;;;;11.25;8.05;;;;;;;21.76;34.78;100309.52;2251271;77;27671;-59
2021/05/09 06:22:00;;;;;;;12.50;8.65;;;;;;;21.69;34.86;100304.66;2297471;77;27674;-60
2021/05/09 06:28:28;;;;;;;10.82;7.95;;;;;;;21.87;34.93;100301.15;2328082;76;27702;-60
2021/05/09 06:31:41;;;;;;;12.13;7.80;;;;;;;21.88;34.56;100292.48;2343138;76;27611;-60
2021/05/09 06:34:53;;;;;;;11.73;8.95;;;;;;;22.23;34.73;100288.14;2336666;76;27751;-61
2021/05/09 06:38:07;;;;;;;10.32;7.20;;;;;;;22.70;35.12;100289.36;2301684;76;27675;-61
2021/05/09 06:41:21;;;;;;;13.13;8.03;;;;;;;23.13;34.36;100286.83;2341434;76;27590;-61
2021/05/09 06:44:45;;;;;;;9.40;7.20;;;;;;;23.50;34.21;100281.63;2342919;76;27623;-61
2021/05/09 06:47:56;;;;;;;6.78;6.08;;;;;;;23.86;32.96;100279.78;2343185;76;27651;-60
2021/05/09 06:51:09;;;;;;;8.55;6.30;;;;;;;24.10;32.76;100283.16;2329690;76;27742;-60
2021/05/09 06:54:23;;;;;;;10.20;6.12;;;;;;;24.38;32.63;100281.03;2342357;76;27642;-60
2021/05/09 06:57:39;;;;;;;7.45;5.87;;;;;;;24.68;32.09;100281.42;2252281;77;27731;-65
2021/05/09 07:00:55;;;;;;;7.70;5.08;;;;;;;24.85;32.76;100280.98;2285193;77;27724;-61
2021/05/09 07:04:09;;;;;;;6.53;4.80;;;;;;;25.34;31.94;100280.61;2283924;77;28265;-61
2021/05/09 07:07:28;;;;;;;5.80;4.70;;;;;;;25.77;31.60;100281.22;2342571;76;27540;-61
2021/05/09 07:10:41;;;;;;;5.60;4.33;;;;;;;26.08;30.83;100286.44;2343194;76;27582;-64
2021/05/09 07:13:53;;;;;;;4.50;3.90;;;;;;;26.20;29.87;100278.69;2304435;76;27605;-60
2021/05/09 07:17:07;;;;;;;4.65;4.05;;;;;;;26.40;30.29;100268.10;2341198;76;27743;-61
2021/05/09 07:20:20;;;;;;;5.72;3.87;;;;;;;26.69;29.93;100274.77;2286737;77;27641;-64
2021/05/09 07:23:39;;;;;;;5.37;3.85;;;;;;;26.96;30.10;100272.55;2317154;76;28261;-66
2021/05/09 07:26:52;;;;;;;4.40;3.12;;;;;;;27.28;28.58;100277.42;2251255;77;27724;-65
2021/05/09 07:30:08;;;;;;;6.42;4.87;;;;;;;27.51;29.70;100269.14;2312323;76;27618;-65
2021/05/09 07:33:21;;;;;;;4.15;3.47;;;;;;;27.89;29.31;100276.44;2239514;78;27719;-61
2021/05/09 07:36:34;;;;;;;5.22;4.03;;;;;;;28.09;28.54;100271.73;2270333;76;28108;-61
2021/05/09 07:39:47;;;;;;;4.30;3.77;;;;;;;28.02;27.58;100275.77;2323964;76;27709;-65
2021/05/09 07:42:59;;;;;;;4.45;3.75;;;;;;;28.11;28.54;100266.91;2335769;76;27661;-61
2021/05/09 07:46:13;;;;;;;4.67;4.00;;;;;;;28.38;27.94;100263.92;2250553;77;27789;-61
2021/05/09 07:49:26;;;;;;;4.62;3.77;;;;;;;28.46;27.60;100268.50;2321087;75;27695;-61
2021/05/09 07:52:46;;;;;;;8.35;4.20;;;;;;;28.56;27.71;100267.64;2308534;75;27824;-61
2021/05/09 07:55:59;;;;;;;4.37;3.70;;;;;;;28.64;27.25;100266.66;2321803;76;27697;-65
2021/05/09 07:59:13;;;;;;;4.85;4.15;;;;;;;28.74;26.66;100267.75;2273344;77;27669;-61
2021/05/09 08:02:27;;;;;;;4.97;4.33;;;;;;;28.38;26.41;100270.81;2246949;78;27735;-61
2021/05/09 08:05:45;;;;;;;4.83;4.05;;;;;;;28.38;27.38;100268.59;2335234;76;27857;-60
2021/05/09 08:08:58;;;;;;;4.62;3.87;;;;;;;28.50;27.18;100276.17;2331056;76;27775;-59
2021/05/09 08:12:10;;;;;;;5.08;4.15;;;;;;;28.59;26.31;100277.41;2329110;76;28157;-61
2021/05/09 08:15:23;;;;;;;5.25;3.77;;;;;;;28.47;26.55;100270.17;2338866;76;27787;-64
2021/05/09 08:18:36;;;;;;;4.35;3.90;;;;;;;28.44;26.87;100275.56;2337839;76;27654;-70
2021/05/09 08:21:50;;;;;;;6.10;3.55;;;;;;;28.47;26.29;100269.66;2247183;77;27778;-61
2021/05/09 08:25:06;;;;;;;7.00;4.20;;;;;;;28.44;26.29;100265.92;2275300;77;27690;-61
2021/05/09 08:28:19;;;;;;;4.85;3.65;;;;;;;28.32;26.48;100260.05;2266298;77;28168;-60
2021/05/09 08:31:31;;;;;;;4.53;3.70;;;;;;;28.40;26.65;100262.38;2337839;75;27716;-60
2021/05/09 08:34:45;;;;;;;4.85;3.67;;;;;;;28.56;27.45;100257.99;2250082;77;27755;-61
2021/05/09 08:38:00;;;;;;;7.50;3.58;;;;;;;28.60;27.10;100259.31;2352439;74;27808;-61
2021/05/09 08:41:13;;;;;;;4.83;3.45;;;;;;;28.72;27.62;100256.03;2248703;78;27965;-67
2021/05/09 08:44:27;;;;;;;4.62;3.70;;;;;;;28.83;26.93;100251.92;2234443;79;28107;-67
2021/05/09 08:47:41;;;;;;;4.65;2.80;;;;;;;28.66;27.00;100246.11;2306898;74;28385;-69
2021/05/09 08:50:54;;;;;;;3.95;3.47;;;;;;;28.33;26.29;100247.14;2318517;76;27782;-63
2021/05/09 08:54:07;;;;;;;4.37;2.67;;;;;;;27.83;26.10;100242.78;2307597;75;27868;-67
2021/05/09 08:57:20;;;;;;;4.10;3.30;;;;;;;27.59;26.23;100240.67;2213124;77;28370;-66
2021/05/09 09:00:34;;;;;;;5.75;2.60;;;;;;;27.44;26.91;100245.62;2319104;74;28216;-65
2021/05/09 09:03:46;;;;;;;3.95;2.72;;;;;;;27.38;27.23;100246.36;2322149;74;27717;-66
2021/05/09 09:07:02;;;;;;;3.55;2.10;;;;;;;27.46;27.36;100241.86;2241195;78;28418;-66
2021/05/09 09:10:46;;;;;;;4.65;2.37;;;;;;;27.39;27.23;100231.56;2322026;76;27662;-66
2021/05/09 09:14:11;;;;;;;3.52;1.85;;;;;;;27.23;27.04;100231.73;2327704;76;27671;-67
2021/05/09 09:17:25;;;;;;;3.87;2.30;;;;;;;26.89;26.17;100234.45;2237218;78;27803;-67
2021/05/09 09:20:37;;;;;;;2.00;1.70;;;;;;;26.62;27.30;100233.97;2198486;79;27761;-66
2021/05/09 09:23:55;;;;;;;2.70;2.12;;;;;;;26.49;26.93;100231.28;2313549;75;27619;-67
2021/05/09 09:27:07;;;;;;;3.22;2.55;;;;;;;26.26;26.78;100231.27;2224546;77;28217;-67
2021/05/09 09:30:23;;;;;;;2.67;2.47;;;;;;;26.03;27.13;100224.33;2311096;75;27686;-68
2021/05/09 09:33:50;;;;;;;4.03;1.75;;;;;;;25.88;26.82;100233.33;2317890;75;27764;-69
2021/05/09 09:37:03;;;;;;;2.83;1.87;;;;;;;25.51;26.70;100223.85;2321612;74;27668;-66
2021/05/09 09:40:19;;;;;;;4.53;1.98;;;;;;;25.32;27.76;100220.97;2326733;75;27710;-67
2021/05/09 09:43:33;;;;;;;2.67;1.80;;;;;;;25.20;26.76;100212.25;2309482;74;27699;-66
2021/05/09 09:46:51;;;;;;;2.67;1.60;;;;;;;24.90;27.40;100209.73;2294838;77;27646;-68
2021/05/09 09:50:04;;;;;;;2.05;1.50;;;;;;;24.74;28.64;100204.58;2323428;76;27745;-66
2021/05/09 09:53:38;;;;;;;4.20;1.62;;;;;;;24.65;28.21;100200.11;2204444;79;27690;-66
2021/05/09 09:56:51;;;;;;;1.77;1.57;;;;;;;24.38;27.85;100209.84;2313771;76;27699;-65
2021/05/09 10:00:13;;;;;;;3.10;2.17;;;;;;;24.20;28.48;100205.88;2315554;75;28290;-67
2021/05/09 10:03:26;;;;;;;5.50;2.15;;;;;;;24.00;28.09;100205.30;2219149;77;38876;-67
2021/05/09 10:06:39;;;;;;;2.05;1.60;;;;;;;24.01;28.19;100202.91;2318920;75;28162;-69
2021/05/09 10:09:52;;;;;;;1.90;1.70;;;;;;;23.97;27.80;100196.08;2311937;76;27604;-67
2021/05/09 10:13:05;;;;;;;1.60;1.40;;;;;;;23.88;27.66;100194.29;2310877;75;28251;-68
2021/05/09 10:16:25;;;;;;;1.55;1.30;;;;;;;23.86;28.38;100199.94;2280658;77;27784;-70
2021/05/09 10:19:37;;;;;;;2.77;1.00;;;;;;;23.86;27.88;100192.23;2212068;78;27601;-68
2021/05/09 10:23:05;;;;;;;2.58;1.20;;;;;;;23.81;28.13;100190.87;2319801;76;28489;-70
2021/05/09 10:26:32;;;;;;;2.77;1.00;;;;;;;23.65;27.68;100182.08;2311903;75;27776;-68
2021/05/09 10:29:48;;;;;;;1.72;1.32;;;;;;;23.69;27.91;100182.59;2322540;76;27724;-67
2021/05/09 10:33:01;;;;;;;2.77;1.20;;;;;;;23.65;27.79;100183.97;2230417;77;27639;-68
2021/05/09 10:36:22;;;;;;;1.67;1.25;;;;;;;23.61;28.14;100177.95;2235896;77;28020;-67
2021/05/09 10:39:34;;;;;;;1.55;1.00;;;;;;;23.52;27.92;100170.74;2274997;77;27742;-66
2021/05/09 10:42:49;;;;;;;1.25;0.90;;;;;;;23.44;28.18;100166.09;2319998;74;27693;-69
2021/05/09 10:46:02;;;;;;;0.82;0.78;;;;;;;23.40;28.10;100168.80;2222867;77;27766;-67
2021/05/09 10:49:15;;;;;;;1.52;1.10;;;;;;;23.37;28.62;100169.13;2327648;75;27549;-70
2021/05/09 10:52:43;;;;;;;2.10;1.07;;;;;;;23.35;28.70;100165.69;2327593;76;27659;-70
2021/05/09 10:55:56;;;;;;;1.87;0.98;;;;;;;23.34;28.71;100170.81;2261323;75;27749;-68
2021/05/09 10:59:08;;;;;;;2.08;1.05;;;;;;;23.34;28.99;100171.69;2310099;75;27735;-68
2021/05/09 11:02:26;;;;;;;0.62;0.62;;;;;;;23.25;28.55;100163.08;2222876;78;27803;-71
2021/05/09 11:06:12;;;;;;;1.00;1.00;;;;;;;23.30;28.42;100150.31;2329225;76;27603;-69
2021/05/09 11:09:36;;;;;;;0.80;0.80;;;;;;;23.01;29.18;100127.74;2317443;76;27995;-69
2021/05/09 11:13:07;;;;;;;2.27;1.00;;;;;;;23.18;29.15;100145.59;2317435;76;27728;-68
2021/05/09 11:16:20;;;;;;;1.27;1.10;;;;;;;23.13;28.67;100141.99;2324063;74;27671;-69
2021/05/09 11:19:43;;;;;;;0.93;0.70;;;;;;;23.09;29.56;100141.96;2305269;76;27680;-70
2021/05/09 11:22:58;;;;;;;1.10;0.90;;;;;;;23.12;29.51;100136.17;2321200;75;27666;-68
2021/05/09 11:26:31;;;;;;;3.15;0.90;;;;;;;23.13;29.47;100140.62;2322229;75;27685;-71
2021/05/09 11:29:49;;;;;;;1.40;1.00;;;;;;;23.14;29.51;100131.91;2304950;74;36792;-72
2021/05/09 11:33:02;;;;;;;1.65;0.98;;;;;;;23.09;29.38;100131.03;2316502;75;28300;-69
2021/05/09 11:36:28;;;;;;;1.27;1.00;;;;;;;23.10;30.24;100128.64;2315635;76;27699;-67
2021/05/09 11:39:41;;;;;;;1.35;1.02;;;;;;;23.14;30.04;100117.75;2272613;77;27686;-67
2021/05/09 11:42:54;;;;;;;1.05;0.95;;;;;;;23.15;30.01;100121.32;2320606;74;27740;-69
2021/05/09 11:46:18;;;;;;;1.15;0.90;;;;;;;23.14;29.90;100121.84;2323282;74;27850;-68
2021/05/09 11:49:31;;;;;;;3.85;1.07;;;;;;;23.11;30.12;100118.06;2277116;76;28159;-69
2021/05/09 11:52:45;;;;;;;1.47;1.10;;;;;;;23.13;30.35;100120.13;2212770;78;27818;-69
2021/05/09 11:56:00;;;;;;;0.95;0.75;;;;;;;23.14;30.49;100116.88;2278094;77;27896;-69
2021/05/09 11:59:33;;;;;;;1.50;0.82;;;;;;;23.08;30.58;100094.31;2325809;75;27905;-66
2021/05/09 12:02:49;;;;;;;1.07;0.85;;;;;;;23.14;30.46;100096.38;2276493;77;27756;-67
2021/05/09 12:06:11;;;;;;;1.70;0.85;;;;;;;23.13;30.50;100102.86;2321978;75;27806;-66
2021/05/09 12:09:28;;;;;;;2.00;1.20;;;;;;;23.14;30.44;100086.32;2215615;77;32427;-67
2021/05/09 12:12:44;;;;;;;1.30;1.20;;;;;;;23.25;29.89;100090.64;2276734;77;27785;-67
2021/05/09 12:15:58;;;;;;;1.42;0.90;;;;;;;23.22;30.80;100086.90;2227173;77;27821;-64
2021/05/09 12:19:12;;;;;;;4.25;1.00;;;;;;;23.15;30.87;100074.37;2284859;77;27784;-65
2021/05/09 12:22:25;;;;;;;1.72;1.10;;;;;;;23.13;31.28;100080.50;2234295;77;27801;-65
2021/05/09 12:25:43;;;;;;;1.25;0.90;;;;;;;23.11;31.18;100075.71;2224573;77;27733;-64
2021/05/09 12:29:17;;;;;;;4.00;0.72;;;;;;;23.07;30.89;100066.12;2247496;77;28454;-69
2021/05/09 12:32:33;;;;;;;1.98;0.80;;;;;;;23.01;31.34;100058.56;2242638;77;27629;-65
2021/05/09 12:35:50;;;;;;;2.95;1.17;;;;;;;22.98;31.40;100056.19;2225071;77;27691;-67
2021/05/09 12:39:19;;;;;;;1.42;1.32;;;;;;;22.99;31.73;100048.34;2247219;77;27723;-66
2021/05/09 12:42:54;;;;;;;2.47;1.02;;;;;;;22.95;31.32;100050.52;2315509;76;27732;-72
2021/05/09 12:46:06;;;;;;;1.40;0.72;;;;;;;23.00;31.72;100041.33;2323262;76;28353;-73
2021/05/09 12:49:28;;;;;;;0.80;0.80;;;;;;;23.02;31.90;100047.49;2325409;75;27767;-68
2021/05/09 12:52:48;;;;;;;1.55;1.20;;;;;;;23.05;31.53;100044.93;2207668;77;28636;-71
2021/05/09 12:56:26;;;;;;;1.45;0.98;;;;;;;23.16;31.58;100043.29;2288121;77;28148;-73
2021/05/09 13:00:02;;;;;;;1.85;1.10;;;;;;;23.17;30.91;100037.30;2216984;77;27851;-72
2021/05/09 13:03:14;;;;;;;0.95;0.80;;;;;;;23.09;30.44;100035.39;2319412;76;27747;-69
2021/05/09 13:06:27;;;;;;;1.95;0.90;;;;;;;23.03;30.71;100024.62;2326655;76;27662;-74
2021/05/09 13:09:42;;;;;;;1.80;1.62;;;;;;;22.95;30.46;100030.03;2312435;76;28529;-71
2021/05/09 13:13:00;;;;;;;2.37;1.10;;;;;;;22.99;30.43;100005.99;2246127;77;27835;-68
2021/05/09 13:16:12;;;;;;;1.27;0.70;;;;;;;22.96;31.10;100029.02;2232297;77;27916;-73
2021/05/09 13:19:25;;;;;;;5.50;1.07;;;;;;;22.97;31.00;100028.52;2243484;78;27743;-71
2021/05/09 13:22:39;;;;;;;1.07;0.90;;;;;;;22.97;31.04;100021.16;2313118;75;27670;-74
2021/05/09 13:29:08;;;;;;;1.20;0.95;;;;;;;22.99;31.10;100015.03;2191716;80;27888;-71
2021/05/09 13:32:22;;;;;;;2.67;1.22;;;;;;;23.04;31.05;100016.77;2267377;77;27652;-68
2021/05/09 13:35:34;;;;;;;3.87;1.30;;;;;;;23.08;31.13;100015.92;2326185;76;28183;-73
2021/05/09 13:38:47;;;;;;;1.32;1.20;;;;;;;23.11;31.07;100011.98;2320737;75;27632;-73
2021/05/09 13:42:00;;;;;;;1.30;1.20;;;;;;;23.11;30.68;100016.09;2226821;77;28160;-70
2021/05/09 13:45:15;;;;;;;3.22;1.52;;;;;;;23.06;30.66;100005.17;2253168;75;27814;-73
2021/05/09 13:48:28;;;;;;;4.35;1.95;;;;;;;23.08;30.80;100004.15;2321451;74;27980;-74
2021/05/09 13:51:40;;;;;;;3.72;2.42;;;;;;;23.09;30.83;99990.31;2309713;74;27745;-74
2021/05/09 13:54:54;;;;;;;3.98;2.30;;;;;;;23.10;30.79;99994.75;2232693;78;28161;-71
2021/05/09 13:58:06;;;;;;;3.25;1.80;;;;;;;23.08;30.69;99992.70;2221935;77;27684;-74
2021/05/09 14:01:20;;;;;;;3.45;1.57;;;;;;;23.09;31.14;99982.11;2241042;77;28008;-73
2021/05/09 14:04:33;;;;;;;3.17;1.50;;;;;;;23.14;31.03;99984.34;2319661;74;27753;-72
2021/05/09 14:07:46;;;;;;;2.08;1.27;;;;;;;23.16;31.16;99983.17;2275812;77;27788;-72
2021/05/09 14:10:58;;;;;;;2.08;1.40;;;;;;;23.16;31.07;99985.91;2231787;77;27906;-69
2021/05/09 14:14:12;;;;;;;1.55;1.22;;;;;;;23.14;30.98;99981.60;2228922;77;27896;-71
2021/05/09 14:17:30;;;;;;;5.20;1.67;;;;;;;23.11;31.44;99977.83;2255585;76;28268;-74
2021/05/09 14:20:40;;;;;;;1.27;1.17;;;;;;;23.11;31.64;99969.14;2315372;74;27763;-74
2021/05/09 14:23:52;;;;;;;4.78;1.37;;;;;;;23.12;31.85;99978.18;2227214;79;27811;-73
2021/05/09 14:27:11;;;;;;;1.25;1.15;;;;;;;23.12;31.88;99983.16;2269981;77;27776;-72
2021/05/09 14:30:23;;;;;;;3.45;1.10;;;;;;;23.11;32.04;99979.20;2309848;74;27912;-71
2021/05/09 14:33:36;;;;;;;2.08;1.20;;;;;;;23.08;31.87;99974.93;2278211;77;27753;-70
2021/05/09 14:36:48;;;;;;;4.10;0.90;;;;;;;23.05;31.98;99958.86;2314013;75;27874;-69
2021/05/09 14:40:03;;;;;;;1.40;1.15;;;;;;;23.02;32.13;99964.16;2312082;74;28224;-74
2021/05/09 14:43:16;;;;;;;2.37;1.20;;;;;;;23.02;32.33;99961.43;2318768;76;27740;-75
2021/05/09 14:46:32;;;;;;;1.98;1.10;;;;;;;23.03;32.59;99961.78;2322031;74;27754;-68
2021/05/09 14:49:47;;;;;;;1.27;1.10;;;;;;;23.02;32.48;99948.27;2336863;75;27676;-71
2021/05/09 14:53:01;;;;;;;1.55;1.42;;;;;;;23.01;32.77;99941.09;2322676;76;27707;-71
2021/05/09 14:56:16;;;;;;;1.35;1.17;;;;;;;23.02;32.83;99937.33;2281519;77;27758;-70
2021/05/09 14:59:29;;;;;;;1.47;1.30;;;;;;;23.01;32.92;99939.23;2318613;74;27786;-78
2021/05/09 15:02:43;;;;;;;3.35;1.52;;;;;;;23.04;33.10;99936.17;2231809;77;27741;-77
2021/05/09 15:05:57;;;;;;;11.80;1.70;;;;;;;23.05;33.05;99936.52;2328174;76;27788;-72
2021/05/09 15:09:09;;;;;;;5.12;1.47;;;;;;;23.04;33.03;99934.80;2231542;77;27665;-69
2021/05/09 15:12:22;;;;;;;3.10;1.32;;;;;;;23.02;33.18;99924.55;2284253;76;27760;-69